sensor_id;sensor_type;location;lat;lon;timestamp;temperature;humidity
65826;DHT22;52586;-43.152;172.732;2023-06-14T00:00:22;13.50;61.50
65826;DHT22;52586;-43.152;172.732;2023-06-14T00:02:52;13.50;61.40
65826;DHT22;52586;-43.152;172.732;2023-06-14T00:05:23;13.50;61.40
65826;DHT22;52586;-43.152;172.732;2023-06-14T00:07:54;13.50;61.30
65826;DHT22;52586;-43.152;172.732;2023-06-14T00:10:28;13.50;61.30
65826;DHT22;52586;-43.152;172.732;2023-06-14T00:12:59;13.50;61.30
65826;DHT22;52586;-43.152;172.732;2023-06-14T00:15:31;13.60;61.50
65826;DHT22;52586;-43.152;172.732;2023-06-14T00:18:03;13.60;61.70
65826;DHT22;52586;-43.152;172.732;2023-06-14T00:20:34;13.60;61.70
65826;DHT22;52586;-43.152;172.732;2023-06-14T00:23:05;13.60;62.50
65826;DHT22;52586;-43.152;172.732;2023-06-14T00:25:35;13.60;61.80
65826;DHT22;52586;-43.152;172.732;2023-06-14T00:28:06;13.70;61.90
65826;DHT22;52586;-43.152;172.732;2023-06-14T00:30:38;13.70;61.90
65826;DHT22;52586;-43.152;172.732;2023-06-14T00:33:09;13.70;62.00
65826;DHT22;52586;-43.152;172.732;2023-06-14T00:35:40;13.70;62.00
65826;DHT22;52586;-43.152;172.732;2023-06-14T00:38:10;13.70;62.00
65826;DHT22;52586;-43.152;172.732;2023-06-14T00:40:41;13.80;61.90
65826;DHT22;52586;-43.152;172.732;2023-06-14T00:43:12;13.80;61.80
65826;DHT22;52586;-43.152;172.732;2023-06-14T00:45:44;13.80;61.80
65826;DHT22;52586;-43.152;172.732;2023-06-14T00:48:17;13.80;61.80
65826;DHT22;52586;-43.152;172.732;2023-06-14T00:50:49;13.90;62.10
65826;DHT22;52586;-43.152;172.732;2023-06-14T00:53:21;13.90;62.40
65826;DHT22;52586;-43.152;172.732;2023-06-14T00:55:52;13.90;62.50
65826;DHT22;52586;-43.152;172.732;2023-06-14T00:58:23;13.90;62.50
65826;DHT22;52586;-43.152;172.732;2023-06-14T01:00:56;13.90;62.50
65826;DHT22;52586;-43.152;172.732;2023-06-14T01:03:27;14.00;63.30
65826;DHT22;52586;-43.152;172.732;2023-06-14T01:06:05;14.00;62.50
65826;DHT22;52586;-43.152;172.732;2023-06-14T01:08:46;14.00;62.40
65826;DHT22;52586;-43.152;172.732;2023-06-14T01:11:24;14.00;62.30
65826;DHT22;52586;-43.152;172.732;2023-06-14T01:13:57;14.00;62.30
65826;DHT22;52586;-43.152;172.732;2023-06-14T01:16:32;14.10;62.30
65826;DHT22;52586;-43.152;172.732;2023-06-14T01:19:04;14.10;62.10
65826;DHT22;52586;-43.152;172.732;2023-06-14T01:21:36;14.10;62.20
65826;DHT22;52586;-43.152;172.732;2023-06-14T01:24:11;14.10;62.10
65826;DHT22;52586;-43.152;172.732;2023-06-14T01:26:41;14.10;62.00
65826;DHT22;52586;-43.152;172.732;2023-06-14T01:29:14;14.20;62.30
65826;DHT22;52586;-43.152;172.732;2023-06-14T01:31:47;14.20;62.40
65826;DHT22;52586;-43.152;172.732;2023-06-14T01:34:17;14.20;62.40
65826;DHT22;52586;-43.152;172.732;2023-06-14T01:36:49;14.20;62.40
65826;DHT22;52586;-43.152;172.732;2023-06-14T01:39:22;14.30;62.40
65826;DHT22;52586;-43.152;172.732;2023-06-14T01:41:54;14.30;62.30
65826;DHT22;52586;-43.152;172.732;2023-06-14T01:44:26;14.30;62.20
65826;DHT22;52586;-43.152;172.732;2023-06-14T01:46:58;14.40;62.10
65826;DHT22;52586;-43.152;172.732;2023-06-14T01:49:28;14.30;62.00
65826;DHT22;52586;-43.152;172.732;2023-06-14T01:51:59;14.40;62.00
65826;DHT22;52586;-43.152;172.732;2023-06-14T01:54:32;14.40;62.00
65826;DHT22;52586;-43.152;172.732;2023-06-14T01:57:02;14.40;61.90
65826;DHT22;52586;-43.152;172.732;2023-06-14T01:59:34;14.50;61.90
65826;DHT22;52586;-43.152;172.732;2023-06-14T02:02:05;14.50;61.90
65826;DHT22;52586;-43.152;172.732;2023-06-14T02:04:35;14.50;61.90
65826;DHT22;52586;-43.152;172.732;2023-06-14T02:07:06;14.50;61.90
65826;DHT22;52586;-43.152;172.732;2023-06-14T02:09:40;14.50;61.80
65826;DHT22;52586;-43.152;172.732;2023-06-14T02:12:11;14.50;61.80
65826;DHT22;52586;-43.152;172.732;2023-06-14T02:14:41;14.60;61.80
65826;DHT22;52586;-43.152;172.732;2023-06-14T02:17:12;14.60;61.80
65826;DHT22;52586;-43.152;172.732;2023-06-14T02:19:43;14.60;61.80
65826;DHT22;52586;-43.152;172.732;2023-06-14T02:22:14;14.60;61.80
65826;DHT22;52586;-43.152;172.732;2023-06-14T02:24:47;14.60;61.70
65826;DHT22;52586;-43.152;172.732;2023-06-14T02:27:17;14.70;61.90
65826;DHT22;52586;-43.152;172.732;2023-06-14T02:29:48;14.70;61.80
65826;DHT22;52586;-43.152;172.732;2023-06-14T02:32:19;14.70;61.80
65826;DHT22;52586;-43.152;172.732;2023-06-14T02:34:50;14.80;61.90
65826;DHT22;52586;-43.152;172.732;2023-06-14T02:37:21;14.80;61.90
65826;DHT22;52586;-43.152;172.732;2023-06-14T02:39:53;14.80;61.90
65826;DHT22;52586;-43.152;172.732;2023-06-14T02:42:24;14.80;61.80
65826;DHT22;52586;-43.152;172.732;2023-06-14T02:44:54;14.90;61.90
65826;DHT22;52586;-43.152;172.732;2023-06-14T02:47:25;14.90;61.80
65826;DHT22;52586;-43.152;172.732;2023-06-14T02:49:56;14.90;61.80
65826;DHT22;52586;-43.152;172.732;2023-06-14T02:52:26;14.90;61.80
65826;DHT22;52586;-43.152;172.732;2023-06-14T02:54:59;15.00;61.90
65826;DHT22;52586;-43.152;172.732;2023-06-14T02:57:29;15.00;62.00
65826;DHT22;52586;-43.152;172.732;2023-06-14T03:00:00;15.00;62.00
65826;DHT22;52586;-43.152;172.732;2023-06-14T03:02:31;15.10;62.00
65826;DHT22;52586;-43.152;172.732;2023-06-14T03:05:01;15.10;61.90
65826;DHT22;52586;-43.152;172.732;2023-06-14T03:07:34;15.10;62.10
65826;DHT22;52586;-43.152;172.732;2023-06-14T03:10:11;15.10;62.10
65826;DHT22;52586;-43.152;172.732;2023-06-14T03:12:42;15.10;62.10
65826;DHT22;52586;-43.152;172.732;2023-06-14T03:15:12;15.20;62.10
65826;DHT22;52586;-43.152;172.732;2023-06-14T03:17:43;15.20;62.10
65826;DHT22;52586;-43.152;172.732;2023-06-14T03:20:16;15.20;62.10
65826;DHT22;52586;-43.152;172.732;2023-06-14T03:22:47;15.20;62.00
65826;DHT22;52586;-43.152;172.732;2023-06-14T03:25:20;15.30;62.10
65826;DHT22;52586;-43.152;172.732;2023-06-14T03:27:50;15.30;62.10
65826;DHT22;52586;-43.152;172.732;2023-06-14T03:30:21;15.30;62.10
65826;DHT22;52586;-43.152;172.732;2023-06-14T03:32:58;15.30;62.00
65826;DHT22;52586;-43.152;172.732;2023-06-14T03:35:30;15.40;62.00
65826;DHT22;52586;-43.152;172.732;2023-06-14T03:38:00;15.40;61.90
65826;DHT22;52586;-43.152;172.732;2023-06-14T03:40:33;15.50;61.90
65826;DHT22;52586;-43.152;172.732;2023-06-14T03:43:04;15.40;61.70
65826;DHT22;52586;-43.152;172.732;2023-06-14T03:45:35;15.50;61.70
65826;DHT22;52586;-43.152;172.732;2023-06-14T03:48:06;15.50;61.70
65826;DHT22;52586;-43.152;172.732;2023-06-14T03:50:36;15.50;61.60
65826;DHT22;52586;-43.152;172.732;2023-06-14T03:53:08;15.60;61.60
65826;DHT22;52586;-43.152;172.732;2023-06-14T03:55:40;15.60;61.50
65826;DHT22;52586;-43.152;172.732;2023-06-14T03:58:11;15.60;61.50
65826;DHT22;52586;-43.152;172.732;2023-06-14T04:00:42;15.70;61.50
65826;DHT22;52586;-43.152;172.732;2023-06-14T04:03:13;15.70;61.50
65826;DHT22;52586;-43.152;172.732;2023-06-14T04:05:44;15.70;61.50
65826;DHT22;52586;-43.152;172.732;2023-06-14T04:08:17;15.70;61.40
65826;DHT22;52586;-43.152;172.732;2023-06-14T04:10:49;15.80;61.40
65826;DHT22;52586;-43.152;172.732;2023-06-14T04:13:20;15.80;61.30
65826;DHT22;52586;-43.152;172.732;2023-06-14T04:15:50;15.80;61.20
65826;DHT22;52586;-43.152;172.732;2023-06-14T04:18:21;15.80;61.20
65826;DHT22;52586;-43.152;172.732;2023-06-14T04:20:52;15.90;61.10
65826;DHT22;52586;-43.152;172.732;2023-06-14T04:23:24;15.90;61.10
65826;DHT22;52586;-43.152;172.732;2023-06-14T04:25:57;15.90;61.00
65826;DHT22;52586;-43.152;172.732;2023-06-14T04:28:30;15.90;60.90
65826;DHT22;52586;-43.152;172.732;2023-06-14T04:31:05;15.90;60.80
65826;DHT22;52586;-43.152;172.732;2023-06-14T04:33:36;16.00;60.80
65826;DHT22;52586;-43.152;172.732;2023-06-14T04:36:11;16.00;60.90
65826;DHT22;52586;-43.152;172.732;2023-06-14T04:38:41;16.00;61.00
65826;DHT22;52586;-43.152;172.732;2023-06-14T04:41:14;16.00;61.00
65826;DHT22;52586;-43.152;172.732;2023-06-14T04:43:46;16.00;61.70
65826;DHT22;52586;-43.152;172.732;2023-06-14T04:46:17;16.00;60.90
65826;DHT22;52586;-43.152;172.732;2023-06-14T04:48:48;16.00;60.80
65826;DHT22;52586;-43.152;172.732;2023-06-14T04:51:19;16.00;60.90
65826;DHT22;52586;-43.152;172.732;2023-06-14T04:53:57;16.00;60.70
65826;DHT22;52586;-43.152;172.732;2023-06-14T04:56:30;16.00;60.80
65826;DHT22;52586;-43.152;172.732;2023-06-14T04:59:01;16.00;60.80
65826;DHT22;52586;-43.152;172.732;2023-06-14T05:01:32;16.00;60.70
65826;DHT22;52586;-43.152;172.732;2023-06-14T05:04:03;16.00;60.70
65826;DHT22;52586;-43.152;172.732;2023-06-14T05:06:34;16.00;60.60
65826;DHT22;52586;-43.152;172.732;2023-06-14T05:09:04;16.00;60.60
65826;DHT22;52586;-43.152;172.732;2023-06-14T05:11:37;16.00;60.50
65826;DHT22;52586;-43.152;172.732;2023-06-14T05:14:08;16.00;60.50
65826;DHT22;52586;-43.152;172.732;2023-06-14T05:16:38;15.90;60.30
65826;DHT22;52586;-43.152;172.732;2023-06-14T05:19:09;15.90;60.30
65826;DHT22;52586;-43.152;172.732;2023-06-14T05:21:40;15.90;60.20
65826;DHT22;52586;-43.152;172.732;2023-06-14T05:24:10;15.90;60.10
65826;DHT22;52586;-43.152;172.732;2023-06-14T05:26:43;15.90;60.10
65826;DHT22;52586;-43.152;172.732;2023-06-14T05:29:14;15.90;60.10
65826;DHT22;52586;-43.152;172.732;2023-06-14T05:31:44;15.90;60.10
65826;DHT22;52586;-43.152;172.732;2023-06-14T05:34:15;15.90;60.10
65826;DHT22;52586;-43.152;172.732;2023-06-14T05:36:46;15.90;60.10
65826;DHT22;52586;-43.152;172.732;2023-06-14T05:39:16;15.90;60.10
65826;DHT22;52586;-43.152;172.732;2023-06-14T05:41:49;15.90;60.10
65826;DHT22;52586;-43.152;172.732;2023-06-14T05:44:19;15.90;60.00
65826;DHT22;52586;-43.152;172.732;2023-06-14T05:46:50;15.90;60.00
65826;DHT22;52586;-43.152;172.732;2023-06-14T05:49:21;15.80;60.00
65826;DHT22;52586;-43.152;172.732;2023-06-14T05:51:51;15.80;60.00
65826;DHT22;52586;-43.152;172.732;2023-06-14T05:54:22;15.80;60.00
65826;DHT22;52586;-43.152;172.732;2023-06-14T05:56:55;15.80;60.00
65826;DHT22;52586;-43.152;172.732;2023-06-14T05:59:28;15.80;60.00
65826;DHT22;52586;-43.152;172.732;2023-06-14T06:01:59;15.70;59.90
65826;DHT22;52586;-43.152;172.732;2023-06-14T06:04:30;15.70;59.80
65826;DHT22;52586;-43.152;172.732;2023-06-14T06:07:00;15.70;59.90
65826;DHT22;52586;-43.152;172.732;2023-06-14T06:09:31;15.70;60.00
65826;DHT22;52586;-43.152;172.732;2023-06-14T06:12:05;15.70;60.10
65826;DHT22;52586;-43.152;172.732;2023-06-14T06:14:36;15.70;60.10
65826;DHT22;52586;-43.152;172.732;2023-06-14T06:17:07;15.70;60.20
65826;DHT22;52586;-43.152;172.732;2023-06-14T06:19:38;15.70;60.00
65826;DHT22;52586;-43.152;172.732;2023-06-14T06:22:08;15.70;59.90
65826;DHT22;52586;-43.152;172.732;2023-06-14T06:24:39;15.70;59.90
65826;DHT22;52586;-43.152;172.732;2023-06-14T06:27:11;15.70;59.90
65826;DHT22;52586;-43.152;172.732;2023-06-14T06:29:43;15.70;59.90
65826;DHT22;52586;-43.152;172.732;2023-06-14T06:32:14;15.70;59.90
65826;DHT22;52586;-43.152;172.732;2023-06-14T06:34:44;15.60;59.90
65826;DHT22;52586;-43.152;172.732;2023-06-14T06:37:16;15.70;59.90
65826;DHT22;52586;-43.152;172.732;2023-06-14T06:39:46;15.60;59.90
65826;DHT22;52586;-43.152;172.732;2023-06-14T06:42:19;15.60;59.80
65826;DHT22;52586;-43.152;172.732;2023-06-14T06:44:50;15.60;59.70
65826;DHT22;52586;-43.152;172.732;2023-06-14T06:47:20;15.60;59.70
65826;DHT22;52586;-43.152;172.732;2023-06-14T06:49:51;15.60;59.70
65826;DHT22;52586;-43.152;172.732;2023-06-14T06:52:22;15.60;59.70
65826;DHT22;52586;-43.152;172.732;2023-06-14T06:54:52;15.60;59.60
65826;DHT22;52586;-43.152;172.732;2023-06-14T06:57:25;15.50;59.60
65826;DHT22;52586;-43.152;172.732;2023-06-14T06:59:56;15.50;59.60
65826;DHT22;52586;-43.152;172.732;2023-06-14T07:02:27;15.50;59.60
65826;DHT22;52586;-43.152;172.732;2023-06-14T07:04:58;15.50;59.60
65826;DHT22;52586;-43.152;172.732;2023-06-14T07:07:29;15.50;59.60
65826;DHT22;52586;-43.152;172.732;2023-06-14T07:09:59;15.50;59.60
65826;DHT22;52586;-43.152;172.732;2023-06-14T07:12:34;15.50;59.60
65826;DHT22;52586;-43.152;172.732;2023-06-14T07:15:07;15.40;59.50
65826;DHT22;52586;-43.152;172.732;2023-06-14T07:17:38;15.40;59.50
65826;DHT22;52586;-43.152;172.732;2023-06-14T07:20:10;15.40;59.50
65826;DHT22;52586;-43.152;172.732;2023-06-14T07:22:41;15.40;59.50
65826;DHT22;52586;-43.152;172.732;2023-06-14T07:25:13;15.40;59.50
65826;DHT22;52586;-43.152;172.732;2023-06-14T07:27:46;15.40;59.50
65826;DHT22;52586;-43.152;172.732;2023-06-14T07:30:17;15.30;59.50
65826;DHT22;52586;-43.152;172.732;2023-06-14T07:32:48;15.30;59.50
65826;DHT22;52586;-43.152;172.732;2023-06-14T07:35:18;15.30;59.50
65826;DHT22;52586;-43.152;172.732;2023-06-14T07:37:49;15.30;59.50
65826;DHT22;52586;-43.152;172.732;2023-06-14T07:40:19;15.30;59.50
65826;DHT22;52586;-43.152;172.732;2023-06-14T07:42:52;15.30;59.40
65826;DHT22;52586;-43.152;172.732;2023-06-14T07:45:22;15.30;59.50
65826;DHT22;52586;-43.152;172.732;2023-06-14T07:47:53;15.30;59.50
65826;DHT22;52586;-43.152;172.732;2023-06-14T07:50:24;15.30;59.50
65826;DHT22;52586;-43.152;172.732;2023-06-14T07:52:55;15.20;59.40
65826;DHT22;52586;-43.152;172.732;2023-06-14T07:55:25;15.20;59.40
65826;DHT22;52586;-43.152;172.732;2023-06-14T07:57:58;15.20;59.40
65826;DHT22;52586;-43.152;172.732;2023-06-14T08:00:28;15.20;59.40
65826;DHT22;52586;-43.152;172.732;2023-06-14T08:02:59;15.20;59.40
65826;DHT22;52586;-43.152;172.732;2023-06-14T08:05:30;15.10;59.40
65826;DHT22;52586;-43.152;172.732;2023-06-14T08:08:00;15.10;59.40
65826;DHT22;52586;-43.152;172.732;2023-06-14T08:10:31;15.10;59.40
65826;DHT22;52586;-43.152;172.732;2023-06-14T08:13:03;15.10;59.40
65826;DHT22;52586;-43.152;172.732;2023-06-14T08:15:36;15.10;59.40
65826;DHT22;52586;-43.152;172.732;2023-06-14T08:18:07;15.10;59.30
65826;DHT22;52586;-43.152;172.732;2023-06-14T08:20:37;15.10;59.40
65826;DHT22;52586;-43.152;172.732;2023-06-14T08:23:08;15.10;59.40
65826;DHT22;52586;-43.152;172.732;2023-06-14T08:25:39;15.10;59.40
65826;DHT22;52586;-43.152;172.732;2023-06-14T08:28:11;15.10;59.40
65826;DHT22;52586;-43.152;172.732;2023-06-14T08:30:43;15.10;59.40
65826;DHT22;52586;-43.152;172.732;2023-06-14T08:33:19;15.10;59.40
65826;DHT22;52586;-43.152;172.732;2023-06-14T08:35:50;15.10;59.40
65826;DHT22;52586;-43.152;172.732;2023-06-14T08:38:20;15.00;59.40
65826;DHT22;52586;-43.152;172.732;2023-06-14T08:40:52;15.00;59.40
65826;DHT22;52586;-43.152;172.732;2023-06-14T08:43:25;15.00;59.40
65826;DHT22;52586;-43.152;172.732;2023-06-14T08:46:00;15.00;59.40
65826;DHT22;52586;-43.152;172.732;2023-06-14T08:48:31;15.00;59.40
65826;DHT22;52586;-43.152;172.732;2023-06-14T08:51:01;15.00;59.30
65826;DHT22;52586;-43.152;172.732;2023-06-14T08:53:33;15.00;59.40
65826;DHT22;52586;-43.152;172.732;2023-06-14T08:56:04;15.00;59.50
65826;DHT22;52586;-43.152;172.732;2023-06-14T08:58:37;15.00;59.50
65826;DHT22;52586;-43.152;172.732;2023-06-14T09:01:11;15.00;59.50
65826;DHT22;52586;-43.152;172.732;2023-06-14T09:03:44;15.00;59.50
65826;DHT22;52586;-43.152;172.732;2023-06-14T09:06:16;15.00;59.50
65826;DHT22;52586;-43.152;172.732;2023-06-14T09:08:47;15.00;59.50
65826;DHT22;52586;-43.152;172.732;2023-06-14T09:11:20;15.00;59.50
65826;DHT22;52586;-43.152;172.732;2023-06-14T09:13:52;14.90;59.40
65826;DHT22;52586;-43.152;172.732;2023-06-14T09:16:23;14.90;59.40
65826;DHT22;52586;-43.152;172.732;2023-06-14T09:18:55;15.00;59.50
65826;DHT22;52586;-43.152;172.732;2023-06-14T09:21:25;15.00;59.40
65826;DHT22;52586;-43.152;172.732;2023-06-14T09:23:56;15.00;60.00
65826;DHT22;52586;-43.152;172.732;2023-06-14T09:26:26;14.90;60.10
65826;DHT22;52586;-43.152;172.732;2023-06-14T09:28:59;15.00;60.00
65826;DHT22;52586;-43.152;172.732;2023-06-14T09:31:30;15.00;59.90
65826;DHT22;52586;-43.152;172.732;2023-06-14T09:34:03;15.00;59.80
65826;DHT22;52586;-43.152;172.732;2023-06-14T09:36:34;15.00;59.80
65826;DHT22;52586;-43.152;172.732;2023-06-14T09:39:05;15.00;59.70
65826;DHT22;52586;-43.152;172.732;2023-06-14T09:41:36;15.00;59.70
65826;DHT22;52586;-43.152;172.732;2023-06-14T09:44:09;15.00;59.70
65826;DHT22;52586;-43.152;172.732;2023-06-14T09:46:40;15.00;59.70
65826;DHT22;52586;-43.152;172.732;2023-06-14T09:49:11;15.00;59.70
65826;DHT22;52586;-43.152;172.732;2023-06-14T09:51:44;15.00;59.70
65826;DHT22;52586;-43.152;172.732;2023-06-14T09:54:16;15.00;59.70
65826;DHT22;52586;-43.152;172.732;2023-06-14T09:56:52;14.90;59.60
65826;DHT22;52586;-43.152;172.732;2023-06-14T09:59:27;14.90;59.60
65826;DHT22;52586;-43.152;172.732;2023-06-14T10:02:07;14.90;59.60
65826;DHT22;52586;-43.152;172.732;2023-06-14T10:04:41;14.90;59.60
65826;DHT22;52586;-43.152;172.732;2023-06-14T10:07:18;14.90;59.60
65826;DHT22;52586;-43.152;172.732;2023-06-14T10:09:50;14.90;59.60
65826;DHT22;52586;-43.152;172.732;2023-06-14T10:12:20;14.90;59.50
65826;DHT22;52586;-43.152;172.732;2023-06-14T10:14:53;14.90;59.50
65826;DHT22;52586;-43.152;172.732;2023-06-14T10:17:32;14.90;60.10
65826;DHT22;52586;-43.152;172.732;2023-06-14T10:20:25;14.80;59.50
65826;DHT22;52586;-43.152;172.732;2023-06-14T10:23:01;14.80;59.50
65826;DHT22;52586;-43.152;172.732;2023-06-14T10:25:34;14.80;59.50
65826;DHT22;52586;-43.152;172.732;2023-06-14T10:28:15;14.80;59.40
65826;DHT22;52586;-43.152;172.732;2023-06-14T10:31:06;14.80;59.50
65826;DHT22;52586;-43.152;172.732;2023-06-14T10:33:39;14.80;59.40
65826;DHT22;52586;-43.152;172.732;2023-06-14T10:36:28;14.80;59.40
65826;DHT22;52586;-43.152;172.732;2023-06-14T10:39:05;14.80;59.50
65826;DHT22;52586;-43.152;172.732;2023-06-14T10:41:39;14.80;59.40
65826;DHT22;52586;-43.152;172.732;2023-06-14T10:44:43;14.80;59.40
65826;DHT22;52586;-43.152;172.732;2023-06-14T10:47:26;14.80;59.50
65826;DHT22;52586;-43.152;172.732;2023-06-14T10:50:03;14.70;59.40
65826;DHT22;52586;-43.152;172.732;2023-06-14T10:52:35;14.70;59.40
65826;DHT22;52586;-43.152;172.732;2023-06-14T10:55:10;14.70;59.40
65826;DHT22;52586;-43.152;172.732;2023-06-14T10:57:43;14.70;59.40
65826;DHT22;52586;-43.152;172.732;2023-06-14T11:00:15;14.70;59.40
65826;DHT22;52586;-43.152;172.732;2023-06-14T11:06:13;14.70;59.40
65826;DHT22;52586;-43.152;172.732;2023-06-14T11:09:19;14.70;59.40
65826;DHT22;52586;-43.152;172.732;2023-06-14T11:11:52;14.70;59.40
65826;DHT22;52586;-43.152;172.732;2023-06-14T11:14:24;14.70;59.40
65826;DHT22;52586;-43.152;172.732;2023-06-14T11:16:55;14.70;59.40
65826;DHT22;52586;-43.152;172.732;2023-06-14T11:19:25;14.60;59.40
65826;DHT22;52586;-43.152;172.732;2023-06-14T11:22:00;14.60;59.40
65826;DHT22;52586;-43.152;172.732;2023-06-14T11:24:32;14.60;59.40
65826;DHT22;52586;-43.152;172.732;2023-06-14T11:27:03;14.60;59.40
65826;DHT22;52586;-43.152;172.732;2023-06-14T11:29:34;14.70;59.40
65826;DHT22;52586;-43.152;172.732;2023-06-14T11:32:07;14.60;59.40
65826;DHT22;52586;-43.152;172.732;2023-06-14T11:34:40;14.60;59.30
65826;DHT22;52586;-43.152;172.732;2023-06-14T11:37:13;14.60;59.40
65826;DHT22;52586;-43.152;172.732;2023-06-14T11:39:45;14.60;59.30
65826;DHT22;52586;-43.152;172.732;2023-06-14T11:42:16;14.60;59.30
65826;DHT22;52586;-43.152;172.732;2023-06-14T11:44:47;14.60;59.30
65826;DHT22;52586;-43.152;172.732;2023-06-14T11:47:19;14.60;59.30
65826;DHT22;52586;-43.152;172.732;2023-06-14T11:49:50;14.60;59.40
65826;DHT22;52586;-43.152;172.732;2023-06-14T11:52:23;14.60;59.40
65826;DHT22;52586;-43.152;172.732;2023-06-14T11:54:54;14.60;59.40
65826;DHT22;52586;-43.152;172.732;2023-06-14T11:57:25;14.60;59.40
65826;DHT22;52586;-43.152;172.732;2023-06-14T11:59:56;14.60;59.40
65826;DHT22;52586;-43.152;172.732;2023-06-14T12:02:27;14.60;59.40
65826;DHT22;52586;-43.152;172.732;2023-06-14T12:05:06;14.50;59.30
65826;DHT22;52586;-43.152;172.732;2023-06-14T12:07:39;14.50;59.30
65826;DHT22;52586;-43.152;172.732;2023-06-14T12:10:13;14.50;59.30
65826;DHT22;52586;-43.152;172.732;2023-06-14T12:12:44;14.50;59.30
65826;DHT22;52586;-43.152;172.732;2023-06-14T12:15:15;14.50;59.30
65826;DHT22;52586;-43.152;172.732;2023-06-14T12:17:47;14.50;59.30
65826;DHT22;52586;-43.152;172.732;2023-06-14T12:20:19;14.50;59.30
65826;DHT22;52586;-43.152;172.732;2023-06-14T12:22:55;14.50;59.30
65826;DHT22;52586;-43.152;172.732;2023-06-14T12:25:27;14.50;59.30
65826;DHT22;52586;-43.152;172.732;2023-06-14T12:27:59;14.50;59.30
65826;DHT22;52586;-43.152;172.732;2023-06-14T12:30:30;14.50;59.30
65826;DHT22;52586;-43.152;172.732;2023-06-14T12:33:01;14.50;59.30
65826;DHT22;52586;-43.152;172.732;2023-06-14T12:35:32;14.50;59.30
65826;DHT22;52586;-43.152;172.732;2023-06-14T12:38:04;14.50;59.30
65826;DHT22;52586;-43.152;172.732;2023-06-14T12:40:35;14.50;59.30
65826;DHT22;52586;-43.152;172.732;2023-06-14T12:43:07;14.50;59.30
65826;DHT22;52586;-43.152;172.732;2023-06-14T12:45:37;14.50;59.30
65826;DHT22;52586;-43.152;172.732;2023-06-14T12:48:08;14.50;59.30
65826;DHT22;52586;-43.152;172.732;2023-06-14T12:50:38;14.50;59.30
65826;DHT22;52586;-43.152;172.732;2023-06-14T12:53:11;14.50;59.30
65826;DHT22;52586;-43.152;172.732;2023-06-14T12:55:42;14.50;59.30
65826;DHT22;52586;-43.152;172.732;2023-06-14T12:58:12;14.50;59.30
65826;DHT22;52586;-43.152;172.732;2023-06-14T13:00:44;14.50;59.30
65826;DHT22;52586;-43.152;172.732;2023-06-14T13:03:15;14.50;59.30
65826;DHT22;52586;-43.152;172.732;2023-06-14T13:05:46;14.50;59.30
65826;DHT22;52586;-43.152;172.732;2023-06-14T13:08:18;14.40;59.20
65826;DHT22;52586;-43.152;172.732;2023-06-14T13:10:50;14.40;59.20
65826;DHT22;52586;-43.152;172.732;2023-06-14T13:13:20;14.40;59.20
65826;DHT22;52586;-43.152;172.732;2023-06-14T13:15:51;14.40;59.20
65826;DHT22;52586;-43.152;172.732;2023-06-14T13:18:22;14.40;59.20
65826;DHT22;52586;-43.152;172.732;2023-06-14T13:20:53;14.40;59.20
65826;DHT22;52586;-43.152;172.732;2023-06-14T13:23:25;14.40;59.20
65826;DHT22;52586;-43.152;172.732;2023-06-14T13:25:56;14.30;59.10
65826;DHT22;52586;-43.152;172.732;2023-06-14T13:28:26;14.30;59.20
65826;DHT22;52586;-43.152;172.732;2023-06-14T13:30:57;14.30;59.10
65826;DHT22;52586;-43.152;172.732;2023-06-14T13:33:28;14.30;59.10
65826;DHT22;52586;-43.152;172.732;2023-06-14T13:36:01;14.30;59.10
65826;DHT22;52586;-43.152;172.732;2023-06-14T13:38:33;14.30;59.10
65826;DHT22;52586;-43.152;172.732;2023-06-14T13:41:04;14.30;59.10
65826;DHT22;52586;-43.152;172.732;2023-06-14T13:43:34;14.30;59.10
65826;DHT22;52586;-43.152;172.732;2023-06-14T13:46:05;14.30;59.10
65826;DHT22;52586;-43.152;172.732;2023-06-14T13:48:36;14.20;59.00
65826;DHT22;52586;-43.152;172.732;2023-06-14T13:51:06;14.20;59.00
65826;DHT22;52586;-43.152;172.732;2023-06-14T13:53:39;14.20;59.00
65826;DHT22;52586;-43.152;172.732;2023-06-14T13:56:10;14.20;59.00
65826;DHT22;52586;-43.152;172.732;2023-06-14T13:58:40;14.20;59.00
65826;DHT22;52586;-43.152;172.732;2023-06-14T14:01:11;14.20;59.00
65826;DHT22;52586;-43.152;172.732;2023-06-14T14:03:41;14.20;59.00
65826;DHT22;52586;-43.152;172.732;2023-06-14T14:06:13;14.20;59.00
65826;DHT22;52586;-43.152;172.732;2023-06-14T14:08:45;14.10;59.00
65826;DHT22;52586;-43.152;172.732;2023-06-14T14:11:16;14.10;58.90
65826;DHT22;52586;-43.152;172.732;2023-06-14T14:13:47;14.10;59.00
65826;DHT22;52586;-43.152;172.732;2023-06-14T14:16:17;14.10;59.00
65826;DHT22;52586;-43.152;172.732;2023-06-14T14:18:48;14.10;59.00
65826;DHT22;52586;-43.152;172.732;2023-06-14T14:21:19;14.10;59.00
65826;DHT22;52586;-43.152;172.732;2023-06-14T14:23:51;14.10;58.90
65826;DHT22;52586;-43.152;172.732;2023-06-14T14:26:22;14.10;58.90
65826;DHT22;52586;-43.152;172.732;2023-06-14T14:28:52;14.00;58.90
65826;DHT22;52586;-43.152;172.732;2023-06-14T14:31:23;14.10;59.00
65826;DHT22;52586;-43.152;172.732;2023-06-14T14:33:54;14.00;58.90
65826;DHT22;52586;-43.152;172.732;2023-06-14T14:36:24;14.00;58.90
65826;DHT22;52586;-43.152;172.732;2023-06-14T14:38:57;14.00;58.80
65826;DHT22;52586;-43.152;172.732;2023-06-14T14:41:28;14.00;58.90
65826;DHT22;52586;-43.152;172.732;2023-06-14T14:43:59;14.00;58.90
65826;DHT22;52586;-43.152;172.732;2023-06-14T14:46:30;14.00;58.80
65826;DHT22;52586;-43.152;172.732;2023-06-14T14:49:01;13.90;59.40
65826;DHT22;52586;-43.152;172.732;2023-06-14T14:51:31;14.00;58.90
65826;DHT22;52586;-43.152;172.732;2023-06-14T14:54:04;13.90;58.80
65826;DHT22;52586;-43.152;172.732;2023-06-14T14:56:35;13.90;58.80
65826;DHT22;52586;-43.152;172.732;2023-06-14T14:59:06;13.90;58.90
65826;DHT22;52586;-43.152;172.732;2023-06-14T15:01:36;13.90;58.80
65826;DHT22;52586;-43.152;172.732;2023-06-14T15:04:07;13.90;58.80
65826;DHT22;52586;-43.152;172.732;2023-06-14T15:06:38;13.90;58.90
65826;DHT22;52586;-43.152;172.732;2023-06-14T15:09:11;13.80;58.80
65826;DHT22;52586;-43.152;172.732;2023-06-14T15:11:42;13.80;58.70
65826;DHT22;52586;-43.152;172.732;2023-06-14T15:14:13;13.80;58.80
65826;DHT22;52586;-43.152;172.732;2023-06-14T15:16:44;13.80;58.70
65826;DHT22;52586;-43.152;172.732;2023-06-14T15:19:17;13.70;58.70